Time;durP1;ratioP1;P1;durP2;ratioP2;P2;SDS_P1;SDS_P2;PMS_P1;PMS_P2;Temp;Humidity;BMP_temperature;BMP_pressure;BME280_temperature;BME280_humidity;BME280_pressure;Samples;Min_cycle;Max_cycle;Signal;HPM_P1;HPM_P2
2024/02/08 00:00:46;;;;;;;;;;;22.80;38.60;;;;;;5076468;28;20259;-59
2024/02/08 00:03:13;;;;;;;;;;;22.80;38.70;;;;;;5076348;28;19959;-59
2024/02/08 00:05:41;;;;;;;;;;;22.80;38.70;;;;;;5075803;28;19932;-59
2024/02/08 00:08:08;;;;;;;;;;;22.80;38.70;;;;;;5076336;28;19924;-59
2024/02/08 00:10:35;;;;;;;;;;;22.80;38.70;;;;;;5075613;28;19928;-63
2024/02/08 00:13:02;;;;;;;;;;;22.70;38.70;;;;;;5058199;28;19924;-59
2024/02/08 00:15:29;;;;;;;;;;;22.70;38.70;;;;;;5074849;28;19924;-60
2024/02/08 00:17:56;;;;;;;;;;;22.70;38.70;;;;;;5075441;28;19932;-59
2024/02/08 00:20:23;;;;;;;;;;;22.70;38.70;;;;;;5075565;28;19942;-59
2024/02/08 00:22:54;;;;;;;;;;;22.70;38.70;;;;;;5075697;28;19993;-59
2024/02/08 00:25:22;;;;;;;;;;;22.70;38.70;;;;;;5075589;28;19924;-59
2024/02/08 00:27:53;;;;;;;;;;;22.70;38.70;;;;;;5075518;28;19963;-58
2024/02/08 00:30:20;;;;;;;;;;;22.70;38.70;;;;;;5075104;28;19932;-61
2024/02/08 00:32:48;;;;;;;;;;;22.70;38.70;;;;;;5075773;28;19928;-59
2024/02/08 00:35:19;;;;;;;;;;;22.70;38.70;;;;;;5075580;28;20023;-59
2024/02/08 00:37:47;;;;;;;;;;;22.70;38.70;;;;;;5075283;28;20019;-59
2024/02/08 00:40:15;;;;;;;;;;;22.70;38.70;;;;;;5075397;28;19929;-59
2024/02/08 00:42:42;;;;;;;;;;;22.70;38.70;;;;;;5075347;28;19986;-59
2024/02/08 00:45:10;;;;;;;;;;;22.70;38.70;;;;;;5075653;28;19931;-59
2024/02/08 00:47:37;;;;;;;;;;;22.70;38.70;;;;;;5075121;28;19925;-59
2024/02/08 00:50:05;;;;;;;;;;;22.70;38.70;;;;;;5075160;28;19924;-59
2024/02/08 00:52:33;;;;;;;;;;;22.70;38.70;;;;;;5075346;28;19986;-59
2024/02/08 00:55:00;;;;;;;;;;;22.70;38.70;;;;;;5075011;28;19978;-59
2024/02/08 00:57:32;;;;;;;;;;;22.70;38.70;;;;;;5075585;28;19924;-59
2024/02/08 01:00:00;;;;;;;;;;;22.70;38.70;;;;;;5075162;28;19970;-59
2024/02/08 01:02:28;;;;;;;;;;;22.70;38.70;;;;;;5074798;28;19924;-60
2024/02/08 01:04:55;;;;;;;;;;;22.70;38.70;;;;;;5074399;28;19924;-59
2024/02/08 01:07:22;;;;;;;;;;;22.70;38.80;;;;;;5075244;28;19925;-59
2024/02/08 01:09:50;;;;;;;;;;;22.60;38.70;;;;;;5057101;28;20024;-59
2024/02/08 01:12:19;;;;;;;;;;;22.70;38.70;;;;;;5074577;28;19925;-59
2024/02/08 01:14:49;;;;;;;;;;;22.60;38.70;;;;;;5074663;28;19932;-59
2024/02/08 01:17:16;;;;;;;;;;;22.60;38.70;;;;;;5074936;28;19954;-59
2024/02/08 01:19:43;;;;;;;;;;;22.60;38.70;;;;;;5075120;28;19928;-59
2024/02/08 01:22:19;;;;;;;;;;;22.60;38.70;;;;;;5074932;28;19924;-59
2024/02/08 01:24:50;;;;;;;;;;;22.60;38.80;;;;;;5074727;28;19924;-59
2024/02/08 01:27:20;;;;;;;;;;;22.60;38.80;;;;;;5057562;28;19931;-59
2024/02/08 01:29:49;;;;;;;;;;;22.60;38.70;;;;;;5074352;28;19951;-59
2024/02/08 01:32:17;;;;;;;;;;;22.60;38.80;;;;;;5074456;28;20350;-59
2024/02/08 01:34:44;;;;;;;;;;;22.60;38.80;;;;;;5074170;28;20374;-59
2024/02/08 01:37:13;;;;;;;;;;;22.60;38.80;;;;;;5073968;28;20377;-59
2024/02/08 01:39:41;;;;;;;;;;;22.60;38.80;;;;;;5074438;28;19925;-59
2024/02/08 01:42:14;;;;;;;;;;;22.60;38.80;;;;;;5074389;28;19924;-59
2024/02/08 01:44:47;;;;;;;;;;;22.60;38.80;;;;;;5074480;28;19936;-59
2024/02/08 01:47:17;;;;;;;;;;;22.60;38.80;;;;;;5074522;28;19948;-59
2024/02/08 01:49:47;;;;;;;;;;;22.60;38.80;;;;;;5074316;28;19925;-59
2024/02/08 01:52:18;;;;;;;;;;;22.60;38.80;;;;;;5074235;28;19967;-59
2024/02/08 01:54:48;;;;;;;;;;;22.60;38.80;;;;;;5073366;28;19981;-59
2024/02/08 01:57:15;;;;;;;;;;;22.60;38.80;;;;;;5074177;28;19986;-59
2024/02/08 01:59:47;;;;;;;;;;;22.60;38.80;;;;;;5073826;28;19990;-59
2024/02/08 02:02:15;;;;;;;;;;;22.60;38.80;;;;;;5073732;28;20015;-59
2024/02/08 02:04:42;;;;;;;;;;;22.60;38.80;;;;;;5073406;28;19936;-59
2024/02/08 02:07:09;;;;;;;;;;;22.60;38.80;;;;;;5073917;28;19924;-59
2024/02/08 02:09:36;;;;;;;;;;;22.60;38.80;;;;;;5055975;28;19931;-61
2024/02/08 02:12:07;;;;;;;;;;;22.60;38.80;;;;;;5073591;28;20404;-59
2024/02/08 02:14:35;;;;;;;;;;;22.60;38.80;;;;;;5073187;28;20339;-59
2024/02/08 02:17:10;;;;;;;;;;;22.60;38.80;;;;;;5073394;28;19924;-59
2024/02/08 02:19:37;;;;;;;;;;;22.60;38.80;;;;;;5073625;28;19931;-59
2024/02/08 02:22:07;;;;;;;;;;;22.60;38.80;;;;;;5073798;28;20019;-59
2024/02/08 02:24:40;;;;;;;;;;;22.50;38.70;;;;;;5072997;28;19963;-59
2024/02/08 02:27:08;;;;;;;;;;;22.50;38.70;;;;;;5055741;28;19930;-60
2024/02/08 02:29:38;;;;;;;;;;;22.60;38.80;;;;;;5073170;28;19967;-59
2024/02/08 02:32:07;;;;;;;;;;;22.50;38.70;;;;;;5073323;28;20027;-59
2024/02/08 02:34:36;;;;;;;;;;;22.50;38.80;;;;;;5072894;28;19929;-59
2024/02/08 02:37:04;;;;;;;;;;;22.50;38.70;;;;;;5073203;28;19930;-59
2024/02/08 02:39:31;;;;;;;;;;;22.50;38.80;;;;;;5073376;28;20001;-59
2024/02/08 02:42:01;;;;;;;;;;;22.50;38.80;;;;;;5073439;28;19964;-59
2024/02/08 02:44:28;;;;;;;;;;;22.60;38.80;;;;;;5072269;28;19924;-59
2024/02/08 02:47:05;;;;;;;;;;;22.50;38.70;;;;;;5073079;28;19924;-59
2024/02/08 02:49:36;;;;;;;;;;;22.50;38.70;;;;;;5073018;28;19925;-59
2024/02/08 02:52:08;;;;;;;;;;;22.50;38.70;;;;;;5073103;28;20282;-59
2024/02/08 02:54:35;;;;;;;;;;;22.50;38.70;;;;;;5073082;28;19932;-59
2024/02/08 02:57:03;;;;;;;;;;;22.50;38.70;;;;;;5073133;28;19925;-59
2024/02/08 02:59:30;;;;;;;;;;;22.50;38.70;;;;;;5072894;28;19925;-59
2024/02/08 03:01:57;;;;;;;;;;;22.50;38.80;;;;;;5072958;28;19978;-59
2024/02/08 03:04:27;;;;;;;;;;;22.50;38.80;;;;;;5072606;28;19925;-59
2024/02/08 03:06:55;;;;;;;;;;;22.50;38.80;;;;;;5073067;28;20368;-59
2024/02/08 03:09:30;;;;;;;;;;;22.50;38.80;;;;;;5073357;28;20297;-59
2024/02/08 03:11:57;;;;;;;;;;;22.50;38.80;;;;;;5072667;28;19932;-59
2024/02/08 03:14:25;;;;;;;;;;;22.50;38.80;;;;;;5072520;28;19978;-59
2024/02/08 03:17:00;;;;;;;;;;;22.50;38.70;;;;;;5072620;28;19980;-59
2024/02/08 03:19:28;;;;;;;;;;;22.50;38.80;;;;;;5073077;28;20435;-59
2024/02/08 03:21:56;;;;;;;;;;;22.50;38.70;;;;;;5073222;28;20384;-59
2024/02/08 03:24:24;;;;;;;;;;;22.50;38.80;;;;;;5072548;28;19938;-59
2024/02/08 03:26:51;;;;;;;;;;;22.50;38.70;;;;;;5072447;28;19924;-59
2024/02/08 03:29:21;;;;;;;;;;;22.50;38.70;;;;;;5076077;28;19928;-59
2024/02/08 03:31:52;;;;;;;;;;;22.50;38.70;;;;;;5076626;28;19931;-59
2024/02/08 03:34:19;;;;;;;;;;;22.50;38.70;;;;;;5076474;28;19924;-59
2024/02/08 03:36:47;;;;;;;;;;;22.50;38.70;;;;;;5076927;28;19963;-59
2024/02/08 03:39:24;;;;;;;;;;;22.50;38.70;;;;;;5077043;28;19928;-59
2024/02/08 03:41:59;;;;;;;;;;;22.50;38.70;;;;;;5076685;28;19931;-59
2024/02/08 03:44:29;;;;;;;;;;;22.50;38.70;;;;;;5058592;28;20441;-59
2024/02/08 03:47:04;;;;;;;;;;;22.50;38.70;;;;;;5076387;28;20370;-59
2024/02/08 03:49:32;;;;;;;;;;;22.50;38.70;;;;;;5076361;28;20336;-58
2024/02/08 03:51:59;;;;;;;;;;;22.50;38.70;;;;;;5076316;28;19924;-59
2024/02/08 03:54:30;;;;;;;;;;;22.50;38.70;;;;;;5075821;28;19925;-59
2024/02/08 03:57:04;;;;;;;;;;;22.50;38.70;;;;;;5075520;28;20023;-59
2024/02/08 03:59:33;;;;;;;;;;;22.50;38.70;;;;;;5076069;28;19978;-59
2024/02/08 04:02:03;;;;;;;;;;;22.50;38.70;;;;;;5076144;28;19970;-59
2024/02/08 04:04:34;;;;;;;;;;;22.50;38.70;;;;;;5058735;28;19928;-59
2024/02/08 04:07:21;;;;;;;;;;;22.50;38.70;;;;;;5075700;28;19925;-59
2024/02/08 04:09:55;;;;;;;;;;;22.50;38.70;;;;;;5075898;28;19929;-59
2024/02/08 04:54:09;;;;;;;;;;;22.60;37.90;;;;;;5075093;28;19970;-59
2024/02/08 04:56:37;;;;;;;;;;;22.60;37.90;;;;;;5074357;28;19928;-58
2024/02/08 04:59:07;;;;;;;;;;;22.60;37.80;;;;;;5074801;28;19924;-59
2024/02/08 05:01:49;;;;;;;;;;;22.60;37.70;;;;;;5075217;28;19930;-59
2024/02/08 05:04:18;;;;;;;;;;;22.60;37.70;;;;;;5075004;28;20424;-59
2024/02/08 05:06:46;;;;;;;;;;;22.60;37.70;;;;;;5074387;28;19932;-58
2024/02/08 05:09:19;;;;;;;;;;;22.60;37.70;;;;;;5075350;28;19924;-59
2024/02/08 05:11:50;;;;;;;;;;;22.60;37.70;;;;;;5074955;28;20289;-59
2024/02/08 05:14:20;;;;;;;;;;;22.60;37.70;;;;;;5074267;28;20392;-63
2024/02/08 05:16:54;;;;;;;;;;;22.60;37.60;;;;;;5074893;28;19971;-59
2024/02/08 05:19:25;;;;;;;;;;;22.60;37.60;;;;;;5074268;28;20453;-59
2024/02/08 05:21:58;;;;;;;;;;;22.60;37.60;;;;;;5074583;28;19924;-59
2024/02/08 05:24:30;;;;;;;;;;;22.60;37.50;;;;;;5075020;28;19928;-59
2024/02/08 05:26:58;;;;;;;;;;;22.60;37.50;;;;;;5074735;28;19924;-59
2024/02/08 05:29:25;;;;;;;;;;;22.60;37.50;;;;;;5074729;28;19995;-58
2024/02/08 05:31:52;;;;;;;;;;;22.60;37.50;;;;;;5074882;28;19971;-59
2024/02/08 05:34:21;;;;;;;;;;;22.60;37.50;;;;;;5074249;28;19957;-59
2024/02/08 05:36:49;;;;;;;;;;;22.60;37.60;;;;;;5072731;28;19968;-59
2024/02/08 05:39:23;;;;;;;;;;;22.60;37.60;;;;;;5072730;28;20386;-62
2024/02/08 05:41:55;;;;;;;;;;;22.60;37.60;;;;;;5064841;28;19936;-62
2024/02/08 05:44:29;;;;;;;;;;;22.60;37.60;;;;;;5070523;28;19925;-59
2024/02/08 05:47:06;;;;;;;;;;;22.60;37.50;;;;;;5073175;28;19970;-65
2024/02/08 05:49:35;;;;;;;;;;;22.60;37.50;;;;;;5072594;28;20146;-59
2024/02/08 05:52:05;;;;;;;;;;;22.60;37.50;;;;;;5072726;28;20019;-63
2024/02/08 05:54:36;;;;;;;;;;;22.70;37.50;;;;;;5073260;28;19928;-59
2024/02/08 05:57:06;;;;;;;;;;;22.70;37.50;;;;;;5073345;28;19931;-61
2024/02/08 05:59:36;;;;;;;;;;;22.70;37.40;;;;;;5073770;28;20324;-61
2024/02/08 06:02:14;;;;;;;;;;;22.70;37.30;;;;;;5072746;28;20018;-59
2024/02/08 06:04:50;;;;;;;;;;;22.70;37.30;;;;;;5071477;28;19932;-59
2024/02/08 06:07:19;;;;;;;;;;;22.70;37.20;;;;;;5073350;28;19974;-58
2024/02/08 06:09:47;;;;;;;;;;;22.70;37.20;;;;;;5073857;28;19978;-59
2024/02/08 06:12:23;;;;;;;;;;;22.70;37.20;;;;;;5070995;28;19947;-60
2024/02/08 06:14:58;;;;;;;;;;;22.80;37.10;;;;;;5054883;28;19932;-60
2024/02/08 06:17:31;;;;;;;;;;;22.80;37.30;;;;;;5066392;28;19959;-59
2024/02/08 06:20:00;;;;;;;;;;;22.80;37.20;;;;;;5070053;28;19929;-60
2024/02/08 06:22:29;;;;;;;;;;;22.90;37.10;;;;;;5066999;28;19925;-60
2024/02/08 06:25:08;;;;;;;;;;;22.90;37.20;;;;;;5072095;28;19928;-59
2024/02/08 06:27:37;;;;;;;;;;;22.90;37.20;;;;;;5064374;28;19972;-59
2024/02/08 06:30:08;;;;;;;;;;;22.80;37.30;;;;;;5060609;28;19928;-60
2024/02/08 06:32:43;;;;;;;;;;;22.80;37.40;;;;;;5061698;28;19928;-60
2024/02/08 06:35:19;;;;;;;;;;;22.80;37.60;;;;;;5063802;28;20009;-61
2024/02/08 06:38:03;;;;;;;;;;;22.90;38.00;;;;;;5054115;28;20291;-62
2024/02/08 06:43:27;;;;;;;;;;;23.00;38.60;;;;;;5058587;28;20358;-62
2024/02/08 07:38:53;;;;;;;;;;;23.70;37.70;;;;;;5062375;28;19983;-59
2024/02/08 07:41:21;;;;;;;;;;;23.80;37.70;;;;;;5061800;28;19970;-61
2024/02/08 07:43:57;;;;;;;;;;;23.80;37.50;;;;;;5052992;28;20382;-59
2024/02/08 07:46:29;;;;;;;;;;;23.80;37.60;;;;;;5049424;28;20723;-60
2024/02/08 07:49:04;;;;;;;;;;;23.90;37.60;;;;;;5053307;28;20262;-59
2024/02/08 07:51:33;;;;;;;;;;;23.90;37.50;;;;;;5062373;28;20374;-61
2024/02/08 07:54:10;;;;;;;;;;;23.90;37.40;;;;;;5066357;28;20003;-60
2024/02/08 07:56:46;;;;;;;;;;;24.00;37.50;;;;;;5063832;28;19928;-59
2024/02/08 07:59:17;;;;;;;;;;;24.00;37.40;;;;;;5060932;28;19931;-59
2024/02/08 08:01:50;;;;;;;;;;;24.10;37.40;;;;;;5059233;28;19933;-59
2024/02/08 08:04:41;;;;;;;;;;;24.10;37.30;;;;;;5063189;28;20382;-60
2024/02/08 08:07:09;;;;;;;;;;;24.20;37.20;;;;;;5062622;28;20003;-61
2024/02/08 08:09:37;;;;;;;;;;;24.20;37.10;;;;;;5058296;28;20373;-61
2024/02/08 08:12:04;;;;;;;;;;;24.30;37.00;;;;;;5061587;28;19941;-62
2024/02/08 08:17:31;;;;;;;;;;;24.40;37.00;;;;;;5049302;28;19947;-61
2024/02/08 08:20:15;;;;;;;;;;;24.40;37.00;;;;;;5051656;28;19933;-60
2024/02/08 08:22:58;;;;;;;;;;;24.40;36.80;;;;;;5064394;28;19928;-60
2024/02/08 08:25:29;;;;;;;;;;;24.40;36.90;;;;;;5068720;28;19928;-61
2024/02/08 08:30:53;;;;;;;;;;;24.50;36.70;;;;;;5047631;28;20424;-61
2024/02/08 08:36:28;;;;;;;;;;;24.50;36.60;;;;;;5062298;28;20011;-60
2024/02/08 08:39:41;;;;;;;;;;;24.60;36.50;;;;;;5062476;28;19932;-60
2024/02/08 08:41:46;;;;;;;;;;;24.60;36.50;;;;;;5064452;28;19929;-61
2024/02/08 08:44:15;;;;;;;;;;;24.60;36.20;;;;;;5060704;28;19939;-60
2024/02/08 08:46:42;;;;;;;;;;;24.60;36.10;;;;;;5063110;28;20481;-62
2024/02/08 08:49:14;;;;;;;;;;;24.60;36.00;;;;;;5061997;28;19936;-62
2024/02/08 08:51:43;;;;;;;;;;;24.70;36.00;;;;;;5065105;28;19955;-61
2024/02/08 08:54:25;;;;;;;;;;;24.70;36.20;;;;;;5064988;28;19925;-61
2024/02/08 08:56:56;;;;;;;;;;;24.70;36.30;;;;;;5068938;28;20108;-63
2024/02/08 08:59:26;;;;;;;;;;;24.70;36.20;;;;;;5066433;28;19999;-60
2024/02/08 09:01:53;;;;;;;;;;;24.80;36.30;;;;;;5064028;28;20007;-61
2024/02/08 09:04:32;;;;;;;;;;;24.80;36.10;;;;;;5061991;28;19932;-61
2024/02/08 09:07:13;;;;;;;;;;;24.80;35.90;;;;;;5067585;28;19932;-61
2024/02/08 09:12:30;;;;;;;;;;;24.90;35.90;;;;;;5066941;28;20318;-61
2024/02/08 09:15:19;;;;;;;;;;;24.90;35.90;;;;;;5065350;28;19932;-60
2024/02/08 09:17:51;;;;;;;;;;;24.90;35.90;;;;;;5063242;28;19932;-61
2024/02/08 09:20:19;;;;;;;;;;;24.90;35.90;;;;;;5063956;28;19956;-61
2024/02/08 09:22:49;;;;;;;;;;;25.00;35.80;;;;;;5066451;28;20002;-60
2024/02/08 09:25:16;;;;;;;;;;;25.00;35.80;;;;;;5063776;28;19929;-60
2024/02/08 09:28:23;;;;;;;;;;;25.00;36.00;;;;;;5042684;28;20389;-61
2024/02/08 09:30:52;;;;;;;;;;;25.10;35.80;;;;;;5057213;28;20023;-61
2024/02/08 09:33:44;;;;;;;;;;;25.10;35.80;;;;;;5059804;28;20337;-60
2024/02/08 09:36:07;;;;;;;;;;;25.10;35.50;;;;;;5057521;28;19963;-61
2024/02/08 09:38:44;;;;;;;;;;;25.10;35.90;;;;;;5059219;28;20035;-61
2024/02/08 09:41:23;;;;;;;;;;;25.10;35.30;;;;;;5058275;28;19947;-60
2024/02/08 09:43:56;;;;;;;;;;;25.10;35.30;;;;;;5061486;28;20593;-61
2024/02/08 09:49:14;;;;;;;;;;;25.10;34.80;;;;;;5050199;28;19946;-59
2024/02/08 09:51:52;;;;;;;;;;;25.10;34.20;;;;;;5068054;28;20528;-58
2024/02/08 09:54:27;;;;;;;;;;;25.10;34.10;;;;;;5059024;28;19929;-59
2024/02/08 09:57:02;;;;;;;;;;;25.10;34.10;;;;;;5057959;28;19924;-59
2024/02/08 09:59:59;;;;;;;;;;;25.10;34.30;;;;;;5051204;28;19925;-61
2024/02/08 10:02:32;;;;;;;;;;;25.10;34.30;;;;;;5057572;28;19936;-60
2024/02/08 10:05:19;;;;;;;;;;;25.10;34.80;;;;;;5028896;28;19929;-60
2024/02/08 10:08:05;;;;;;;;;;;25.10;34.90;;;;;;5057588;28;20364;-62
2024/02/08 10:10:38;;;;;;;;;;;25.10;35.00;;;;;;5058560;28;19928;-62
2024/02/08 10:13:05;;;;;;;;;;;25.10;35.00;;;;;;5062010;28;19928;-62
2024/02/08 10:15:39;;;;;;;;;;;25.20;35.10;;;;;;5059185;28;19932;-63
2024/02/08 10:18:22;;;;;;;;;;;25.20;35.00;;;;;;5061714;28;19936;-62
2024/02/08 10:20:50;;;;;;;;;;;25.30;35.00;;;;;;5057119;28;20449;-63
2024/02/08 10:23:33;;;;;;;;;;;25.30;35.10;;;;;;5060029;28;20054;-61
2024/02/08 10:28:51;;;;;;;;;;;25.30;35.20;;;;;;5056854;28;19967;-63
2024/02/08 10:31:24;;;;;;;;;;;25.30;35.40;;;;;;5057959;28;20077;-63
2024/02/08 10:34:08;;;;;;;;;;;25.40;35.60;;;;;;5059877;28;19928;-63
2024/02/08 10:36:44;;;;;;;;;;;25.40;35.70;;;;;;5054572;28;20565;-62
2024/02/08 10:39:25;;;;;;;;;;;25.40;35.70;;;;;;5056761;28;19932;-62
2024/02/08 10:41:57;;;;;;;;;;;25.40;35.70;;;;;;5031300;28;20448;-62
2024/02/08 10:44:29;;;;;;;;;;;25.40;35.40;;;;;;5049621;28;20317;-61
2024/02/08 10:47:06;;;;;;;;;;;25.50;35.30;;;;;;5058495;28;20499;-60
2024/02/08 10:49:51;;;;;;;;;;;25.50;35.20;;;;;;5049748;28;19933;-60
2024/02/08 10:52:22;;;;;;;;;;;25.50;35.10;;;;;;5050492;28;19929;-60
2024/02/08 10:54:55;;;;;;;;;;;25.50;35.10;;;;;;5068525;28;19925;-63
2024/02/08 10:58:21;;;;;;;;;;;25.50;35.10;;;;;;5063730;28;20389;-59
2024/02/08 11:06:00;;;;;;;;;;;25.60;35.00;;;;;;5066266;28;19924;-64
2024/02/08 11:08:37;;;;;;;;;;;25.60;35.00;;;;;;5062017;28;19975;-62
2024/02/08 11:11:09;;;;;;;;;;;25.60;35.00;;;;;;5065437;28;19932;-62
2024/02/08 11:13:45;;;;;;;;;;;25.60;35.00;;;;;;5063023;28;20385;-62
2024/02/08 11:16:19;;;;;;;;;;;25.70;35.10;;;;;;5064284;28;20010;-63
2024/02/08 11:18:51;;;;;;;;;;;25.70;34.90;;;;;;5062394;28;19937;-62
2024/02/08 11:21:24;;;;;;;;;;;25.70;34.70;;;;;;5062956;28;20011;-61
2024/02/08 11:23:52;;;;;;;;;;;25.70;34.60;;;;;;5062692;28;20319;-62
2024/02/08 11:26:25;;;;;;;;;;;25.70;34.90;;;;;;5062254;28;19924;-61
2024/02/08 11:29:18;;;;;;;;;;;25.70;34.60;;;;;;5060866;28;19939;-61
2024/02/08 11:31:49;;;;;;;;;;;25.70;34.50;;;;;;5067363;28;19931;-61
2024/02/08 11:34:23;;;;;;;;;;;25.70;34.40;;;;;;5065111;28;19947;-61
2024/02/08 11:36:58;;;;;;;;;;;25.70;34.40;;;;;;5066949;28;19968;-61
2024/02/08 11:39:34;;;;;;;;;;;25.70;34.20;;;;;;5062280;28;20274;-61
2024/02/08 11:42:16;;;;;;;;;;;25.70;34.20;;;;;;5067253;28;20435;-60
2024/02/08 11:44:43;;;;;;;;;;;25.70;34.20;;;;;;5064253;28;19936;-61
2024/02/08 11:47:22;;;;;;;;;;;25.70;34.10;;;;;;5065354;28;20305;-61
2024/02/08 11:50:04;;;;;;;;;;;25.70;34.10;;;;;;5067610;28;19932;-61
2024/02/08 11:52:33;;;;;;;;;;;25.70;34.10;;;;;;5065467;28;20385;-62
2024/02/08 11:55:15;;;;;;;;;;;25.70;34.10;;;;;;5051224;28;19938;-61
2024/02/08 11:57:43;;;;;;;;;;;25.70;34.20;;;;;;5070867;28;19924;-60
2024/02/08 12:00:17;;;;;;;;;;;25.70;34.40;;;;;;5070710;28;19938;-59
2024/02/08 12:02:58;;;;;;;;;;;25.70;34.40;;;;;;5066936;28;20362;-60
2024/02/08 12:05:27;;;;;;;;;;;25.70;34.40;;;;;;5064864;28;20476;-60
2024/02/08 12:08:08;;;;;;;;;;;25.60;34.40;;;;;;5070315;28;19954;-60
2024/02/08 12:10:37;;;;;;;;;;;25.60;34.40;;;;;;5069867;28;20461;-60
2024/02/08 12:13:05;;;;;;;;;;;25.60;34.40;;;;;;5072614;28;19928;-63
2024/02/08 12:15:34;;;;;;;;;;;25.60;34.40;;;;;;5069300;28;19960;-60
2024/02/08 12:18:05;;;;;;;;;;;25.60;34.40;;;;;;5068443;28;20034;-61
2024/02/08 12:20:36;;;;;;;;;;;25.60;34.40;;;;;;5067458;28;19939;-64
2024/02/08 12:23:03;;;;;;;;;;;25.60;34.40;;;;;;5072359;28;19987;-60
2024/02/08 12:25:31;;;;;;;;;;;25.60;34.40;;;;;;5069591;28;20439;-61
2024/02/08 12:28:01;;;;;;;;;;;25.70;34.60;;;;;;5071006;28;19932;-60
2024/02/08 12:30:32;;;;;;;;;;;25.70;34.60;;;;;;5068405;28;19932;-63
2024/02/08 12:33:07;;;;;;;;;;;25.70;34.60;;;;;;5067644;28;19985;-60
2024/02/08 12:35:40;;;;;;;;;;;25.70;34.60;;;;;;5071493;28;19928;-58
2024/02/08 12:38:09;;;;;;;;;;;25.70;34.40;;;;;;5071987;28;19935;-60
2024/02/08 12:40:36;;;;;;;;;;;25.70;34.40;;;;;;5068478;28;19929;-59
2024/02/08 12:43:07;;;;;;;;;;;25.70;34.30;;;;;;5069497;28;19978;-61
2024/02/08 12:45:37;;;;;;;;;;;25.70;34.20;;;;;;5064160;28;20456;-63
2024/02/08 12:48:07;;;;;;;;;;;25.70;34.20;;;;;;5067391;28;19963;-60
2024/02/08 12:50:37;;;;;;;;;;;25.70;34.20;;;;;;5069305;28;19925;-60
2024/02/08 12:53:06;;;;;;;;;;;25.70;34.20;;;;;;5068145;28;19932;-61
2024/02/08 12:55:33;;;;;;;;;;;25.70;34.20;;;;;;5067939;28;19932;-61
2024/02/08 12:58:02;;;;;;;;;;;25.70;34.20;;;;;;5068386;28;20308;-64
2024/02/08 13:00:34;;;;;;;;;;;25.70;34.10;;;;;;5062175;28;19942;-63
2024/02/08 13:03:05;;;;;;;;;;;25.70;34.20;;;;;;5066430;28;19925;-63
2024/02/08 13:05:37;;;;;;;;;;;25.70;34.20;;;;;;5065939;28;19932;-62
2024/02/08 13:08:08;;;;;;;;;;;25.70;34.20;;;;;;5065769;28;20358;-63
2024/02/08 13:10:36;;;;;;;;;;;25.70;34.20;;;;;;5068215;28;20382;-61
2024/02/08 13:13:10;;;;;;;;;;;25.70;34.40;;;;;;5065002;28;19928;-59
2024/02/08 13:15:41;;;;;;;;;;;25.70;34.60;;;;;;5066618;28;20020;-62
2024/02/08 13:18:11;;;;;;;;;;;25.70;34.70;;;;;;5067690;28;19928;-61
2024/02/08 13:20:39;;;;;;;;;;;25.70;34.70;;;;;;5067032;28;19939;-62
2024/02/08 13:23:10;;;;;;;;;;;25.70;34.70;;;;;;5069176;28;19924;-61
2024/02/08 13:25:39;;;;;;;;;;;25.70;34.60;;;;;;5067863;28;20372;-64
2024/02/08 13:28:09;;;;;;;;;;;25.70;34.80;;;;;;5066817;28;19928;-64
2024/02/08 13:30:39;;;;;;;;;;;25.70;34.80;;;;;;5068732;28;19943;-64
2024/02/08 13:33:10;;;;;;;;;;;25.70;34.90;;;;;;5064994;28;19967;-67
2024/02/08 13:35:42;;;;;;;;;;;25.70;34.70;;;;;;5047300;28;20007;-65
2024/02/08 13:38:14;;;;;;;;;;;25.80;34.70;;;;;;5048131;28;19933;-65
2024/02/08 13:40:47;;;;;;;;;;;25.70;34.50;;;;;;5067106;28;19980;-68
2024/02/08 13:43:18;;;;;;;;;;;25.80;34.80;;;;;;5064032;28;19939;-61
2024/02/08 13:45:45;;;;;;;;;;;25.80;34.90;;;;;;5065116;28;19932;-67
2024/02/08 13:48:17;;;;;;;;;;;25.80;35.20;;;;;;5063664;28;20039;-64
2024/02/08 13:50:46;;;;;;;;;;;25.80;35.30;;;;;;5069231;28;20472;-63
2024/02/08 13:53:14;;;;;;;;;;;25.80;35.20;;;;;;5066987;28;19924;-64
2024/02/08 13:55:45;;;;;;;;;;;25.80;35.20;;;;;;5070056;28;19928;-65
2024/02/08 13:58:21;;;;;;;;;;;25.80;35.30;;;;;;5065625;28;19970;-67
2024/02/08 14:00:49;;;;;;;;;;;25.80;35.50;;;;;;5051994;28;19924;-66
2024/02/08 14:03:16;;;;;;;;;;;25.70;34.90;;;;;;5062962;28;20019;-64
2024/02/08 14:05:50;;;;;;;;;;;25.70;34.80;;;;;;5066334;28;19932;-64
2024/02/08 14:08:23;;;;;;;;;;;25.70;34.70;;;;;;5059216;28;19953;-66
2024/02/08 14:10:53;;;;;;;;;;;25.70;34.60;;;;;;5068716;28;19982;-65
2024/02/08 14:13:34;;;;;;;;;;;25.70;34.70;;;;;;5064397;28;20412;-66
2024/02/08 14:16:13;;;;;;;;;;;25.70;34.50;;;;;;5049799;28;19981;-66
2024/02/08 14:18:53;;;;;;;;;;;25.70;34.50;;;;;;5064582;28;20293;-67
2024/02/08 14:21:24;;;;;;;;;;;25.70;34.30;;;;;;5061671;28;20211;-66
2024/02/08 14:23:59;;;;;;;;;;;25.70;34.30;;;;;;5048121;28;20026;-67
2024/02/08 14:26:36;;;;;;;;;;;25.70;34.30;;;;;;5060207;28;19933;-66
2024/02/08 14:29:05;;;;;;;;;;;25.70;34.30;;;;;;5063133;28;19959;-66
2024/02/08 14:31:36;;;;;;;;;;;25.70;34.30;;;;;;5062914;28;19939;-67
2024/02/08 14:34:08;;;;;;;;;;;25.70;34.30;;;;;;5061881;28;19936;-64
2024/02/08 14:36:42;;;;;;;;;;;25.70;34.30;;;;;;5065472;28;20349;-65
2024/02/08 14:39:32;;;;;;;;;;;25.70;34.30;;;;;;5066340;28;20404;-76
2024/02/08 14:42:10;;;;;;;;;;;25.70;34.40;;;;;;5064200;28;20334;-65
2024/02/08 14:44:44;;;;;;;;;;;25.60;34.40;;;;;;5066680;28;19928;-66
2024/02/08 14:47:21;;;;;;;;;;;25.60;34.50;;;;;;5065933;28;20461;-63
2024/02/08 14:49:58;;;;;;;;;;;25.60;34.60;;;;;;5062895;28;19947;-64
2024/02/08 14:52:29;;;;;;;;;;;25.60;34.70;;;;;;5067354;28;19970;-66
2024/02/08 14:55:09;;;;;;;;;;;25.70;35.30;;;;;;5068920;28;20418;-64
2024/02/08 14:57:42;;;;;;;;;;;25.70;34.80;;;;;;5070135;28;19982;-65
2024/02/08 15:03:07;;;;;;;;;;;25.70;34.50;;;;;;5068789;28;19924;-65
2024/02/08 15:05:46;;;;;;;;;;;25.70;34.50;;;;;;5067738;28;19928;-65
2024/02/08 15:08:38;;;;;;;;;;;25.70;34.60;;;;;;5062954;28;19940;-66
2024/02/08 15:13:49;;;;;;;;;;;25.70;34.80;;;;;;5060911;28;19943;-66
2024/02/08 15:16:21;;;;;;;;;;;25.70;35.20;;;;;;5047390;28;20044;-66
2024/02/08 15:18:53;;;;;;;;;;;25.70;35.20;;;;;;5060086;28;19986;-65
2024/02/08 15:21:23;;;;;;;;;;;25.70;35.30;;;;;;5068532;28;20022;-62
2024/02/08 15:26:50;;;;;;;;;;;25.70;35.10;;;;;;5069338;28;20404;-63
2024/02/08 15:29:36;;;;;;;;;;;25.70;35.10;;;;;;5072580;28;19959;-59
2024/02/08 15:32:30;;;;;;;;;;;25.70;35.20;;;;;;5052894;28;19932;-58
2024/02/08 15:35:04;;;;;;;;;;;25.70;35.70;;;;;;5074594;28;20023;-59
2024/02/08 15:37:32;;;;;;;;;;;25.70;35.40;;;;;;5065659;28;19931;-56
2024/02/08 15:40:09;;;;;;;;;;;25.70;35.10;;;;;;5074769;28;19933;-57
2024/02/08 15:42:39;;;;;;;;;;;25.70;35.00;;;;;;5076288;28;19924;-58
2024/02/08 15:45:10;;;;;;;;;;;25.70;34.90;;;;;;5075073;28;19924;-57
2024/02/08 15:47:54;;;;;;;;;;;25.60;35.00;;;;;;5076180;28;19978;-57
2024/02/08 15:50:24;;;;;;;;;;;25.60;35.00;;;;;;5075858;28;19924;-59
2024/02/08 15:52:55;;;;;;;;;;;25.60;35.20;;;;;;5076008;28;20023;-59
2024/02/08 15:55:25;;;;;;;;;;;25.50;35.10;;;;;;5076431;28;19978;-57
2024/02/08 15:58:16;;;;;;;;;;;25.50;35.20;;;;;;5075819;28;19960;-59
2024/02/08 16:03:27;;;;;;;;;;;25.40;35.60;;;;;;5076039;28;19931;-57
2024/02/08 16:05:57;;;;;;;;;;;25.40;36.10;;;;;;5076282;28;19946;-58
2024/02/08 16:08:33;;;;;;;;;;;25.20;35.70;;;;;;5076127;28;19931;-56
2024/02/08 16:11:18;;;;;;;;;;;25.20;35.90;;;;;;5076187;28;19933;-57
2024/02/08 16:14:03;;;;;;;;;;;25.10;36.20;;;;;;5075895;28;19978;-54
2024/02/08 16:16:31;;;;;;;;;;;25.10;36.50;;;;;;5075385;28;19935;-57
2024/02/08 16:21:45;;;;;;;;;;;25.00;36.90;;;;;;5075808;28;19932;-57
2024/02/08 16:24:17;;;;;;;;;;;24.90;37.00;;;;;;5076019;28;19929;-55
2024/02/08 16:26:53;;;;;;;;;;;24.90;37.10;;;;;;5076191;28;20046;-56
2024/02/08 16:29:20;;;;;;;;;;;24.80;37.10;;;;;;5075959;28;20251;-53
2024/02/08 16:31:54;;;;;;;;;;;24.80;37.40;;;;;;5076183;28;20342;-54
2024/02/08 16:34:34;;;;;;;;;;;24.70;37.10;;;;;;5074544;28;19924;-56
2024/02/08 16:37:04;;;;;;;;;;;24.70;37.20;;;;;;5075451;28;19925;-57
2024/02/08 16:39:42;;;;;;;;;;;24.70;37.30;;;;;;5075565;28;20027;-56
2024/02/08 16:42:17;;;;;;;;;;;24.60;37.20;;;;;;5074888;28;19932;-57
2024/02/08 16:44:56;;;;;;;;;;;24.60;37.20;;;;;;5075718;28;19970;-57
2024/02/08 16:47:27;;;;;;;;;;;24.60;37.20;;;;;;5075584;28;19976;-57
2024/02/08 16:49:58;;;;;;;;;;;24.60;37.30;;;;;;5075360;28;19935;-58
2024/02/08 16:52:34;;;;;;;;;;;24.50;37.30;;;;;;5075200;28;19928;-56
2024/02/08 16:55:11;;;;;;;;;;;24.50;37.30;;;;;;5075554;28;19932;-57
2024/02/08 16:57:40;;;;;;;;;;;24.50;37.40;;;;;;5074894;28;20017;-58
2024/02/08 17:03:04;;;;;;;;;;;24.50;37.50;;;;;;5075420;28;19964;-56